Time;durP1;ratioP1;P1;durP2;ratioP2;P2;SDS_P1;SDS_P2;PMS_P1;PMS_P2;Temp;Humidity;BMP_temperature;BMP_pressure;BME280_temperature;BME280_humidity;BME280_pressure;Samples;Min_cycle;Max_cycle;Signal;HPM_P1;HPM_P2
2022/04/12 00:00:09;;;;;;;4.45;1.73;;;;;;;1.74;100.00;92790.97;2089934;28;20025;-83
2022/04/12 00:01:10;;;;;;;3.88;1.42;;;;;;;1.79;100.00;92792.50;2097884;28;20024;-83
2022/04/12 00:02:11;;;;;;;2.92;1.70;;;;;;;1.70;100.00;92785.69;2088220;28;20021;-82
2022/04/12 00:03:12;;;;;;;4.30;1.67;;;;;;;1.70;100.00;92787.56;2087394;28;20442;-82
2022/04/12 00:04:13;;;;;;;3.25;1.75;;;;;;;1.73;100.00;92792.09;2096662;28;20032;-82
2022/04/12 00:05:14;;;;;;;2.80;1.48;;;;;;;1.73;100.00;92789.47;2090966;28;20025;-84
2022/04/12 00:06:15;;;;;;;1.83;1.33;;;;;;;1.69;100.00;92786.06;2097333;28;20106;-83
2022/04/12 00:07:17;;;;;;;2.97;1.48;;;;;;;1.66;100.00;92787.53;2088732;28;20049;-82
2022/04/12 00:08:18;;;;;;;2.95;1.88;;;;;;;1.71;100.00;92784.56;2096765;28;20465;-83
2022/04/12 00:09:21;;;;;;;3.33;1.60;;;;;;;1.73;100.00;92786.84;2089238;28;20024;-84
2022/04/12 00:10:22;;;;;;;1.48;1.20;;;;;;;1.66;100.00;92792.81;2091254;28;20055;-81
2022/04/12 00:11:24;;;;;;;3.25;1.42;;;;;;;1.71;100.00;92781.16;2090958;28;20382;-83
2022/04/12 00:12:25;;;;;;;2.22;1.40;;;;;;;1.84;100.00;92789.50;2087321;28;20037;-80
2022/04/12 00:13:26;;;;;;;3.00;1.65;;;;;;;1.81;100.00;92787.63;2089653;28;20060;-81
2022/04/12 00:14:27;;;;;;;3.40;1.40;;;;;;;1.67;100.00;92789.06;2095910;28;20020;-82
2022/04/12 00:15:28;;;;;;;3.00;1.40;;;;;;;1.67;100.00;92791.69;2097972;28;20074;-80
2022/04/12 00:16:29;;;;;;;1.75;1.40;;;;;;;1.63;100.00;92787.53;2104847;28;20045;-83
2022/04/12 00:19:04;;;;;;;6.55;1.27;;;;;;;1.59;100.00;92786.75;2101787;28;20017;-81
2022/04/12 00:20:06;;;;;;;2.03;1.42;;;;;;;1.56;100.00;92785.59;2105434;28;20031;-82
2022/04/12 00:21:07;;;;;;;2.65;1.40;;;;;;;1.54;100.00;92785.22;2103894;28;20519;-82
2022/04/12 00:22:08;;;;;;;1.83;1.58;;;;;;;1.56;100.00;92784.84;2106133;28;20015;-83
2022/04/12 00:23:11;;;;;;;1.45;1.13;;;;;;;1.48;100.00;92787.41;2089435;28;20028;-83
2022/04/12 00:24:12;;;;;;;2.95;1.45;;;;;;;1.49;100.00;92781.06;2097733;28;20024;-83
2022/04/12 00:25:13;;;;;;;3.90;1.40;;;;;;;1.44;100.00;92773.47;2089704;28;20021;-83
2022/04/12 00:26:14;;;;;;;1.70;1.50;;;;;;;1.45;100.00;92777.63;2087365;28;20051;-81
2022/04/12 00:27:15;;;;;;;1.45;1.10;;;;;;;1.45;100.00;92776.88;2088998;28;20021;-81
2022/04/12 00:28:16;;;;;;;1.52;1.33;;;;;;;1.42;100.00;92775.72;2085446;28;20145;-81
2022/04/12 00:29:17;;;;;;;2.88;1.40;;;;;;;1.47;100.00;92777.25;2088385;28;20491;-83
2022/04/12 00:30:28;;;;;;;1.90;1.60;;;;;;;1.47;100.00;92782.53;2097978;28;20372;-81
2022/04/12 00:31:30;;;;;;;2.50;1.40;;;;;;;1.45;100.00;92779.50;2107668;28;20078;-82
2022/04/12 00:32:32;;;;;;;2.55;1.48;;;;;;;1.43;100.00;92777.22;2098941;28;20032;-82
2022/04/12 00:33:33;;;;;;;2.88;1.40;;;;;;;1.44;100.00;92778.72;2098843;28;20024;-82
2022/04/12 00:34:34;;;;;;;3.55;1.40;;;;;;;1.47;100.00;92775.38;2094543;28;20025;-84
2022/04/12 00:35:35;;;;;;;1.60;1.50;;;;;;;1.39;100.00;92780.97;2104130;28;20024;-82
2022/04/12 00:36:36;;;;;;;1.88;1.50;;;;;;;1.42;100.00;92770.47;2101355;28;20455;-82
2022/04/12 00:37:37;;;;;;;1.90;1.33;;;;;;;1.37;100.00;92770.81;2105488;28;20023;-81
2022/04/12 00:38:38;;;;;;;1.52;1.08;;;;;;;1.33;100.00;92771.91;2094992;28;20024;-83
2022/04/12 00:39:39;;;;;;;1.80;1.45;;;;;;;1.33;100.00;92770.03;2105684;28;20024;-83
2022/04/12 00:40:43;;;;;;;1.55;1.42;;;;;;;1.28;100.00;92769.59;2095742;28;20017;-82
2022/04/12 00:41:44;;;;;;;1.75;1.30;;;;;;;1.34;100.00;92770.78;2094794;28;20509;-83
2022/04/12 00:42:48;;;;;;;1.35;1.25;;;;;;;1.33;100.00;92771.91;2104086;28;20020;-82
2022/04/12 00:43:50;;;;;;;1.30;1.20;;;;;;;1.27;100.00;92776.72;2102429;28;20023;-81
2022/04/12 00:44:50;;;;;;;1.50;1.40;;;;;;;1.26;100.00;92773.34;2089749;28;20021;-82
2022/04/12 00:45:51;;;;;;;2.75;1.50;;;;;;;1.28;100.00;92773.00;2089419;28;20040;-83
2022/04/12 00:46:52;;;;;;;2.90;1.38;;;;;;;1.27;100.00;92779.34;2097133;28;20052;-83
2022/04/12 00:47:53;;;;;;;1.40;1.30;;;;;;;1.28;100.00;92775.63;2083494;28;20029;-83
2022/04/12 00:48:54;;;;;;;5.65;1.70;;;;;;;1.51;100.00;92778.03;2099607;28;20043;-83
2022/04/12 00:49:55;;;;;;;1.20;1.10;;;;;;;1.49;100.00;92772.38;2097473;28;20473;-83
2022/04/12 00:51:02;;;;;;;1.40;1.30;;;;;;;1.42;100.00;92767.81;2089592;28;20025;-82
2022/04/12 00:52:04;;;;;;;1.30;1.20;;;;;;;1.35;100.00;92770.41;2090524;28;20024;-82
2022/04/12 00:53:07;;;;;;;1.73;1.40;;;;;;;1.32;100.00;92778.25;2096380;28;20028;-84
2022/04/12 00:54:09;;;;;;;1.55;1.10;;;;;;;1.38;100.00;92779.44;2103303;28;20384;-82
2022/04/12 00:55:10;;;;;;;3.35;1.40;;;;;;;1.45;100.00;92774.25;2091697;28;20112;-84
2022/04/12 00:56:11;;;;;;;1.20;1.10;;;;;;;1.50;100.00;92777.28;2089355;28;20104;-82
2022/04/12 00:57:12;;;;;;;2.55;1.40;;;;;;;1.45;100.00;92769.72;2094958;28;20446;-82
2022/04/12 00:58:13;;;;;;;1.90;1.50;;;;;;;1.55;100.00;92767.53;2105989;28;20069;-83
2022/04/12 00:59:14;;;;;;;1.42;1.27;;;;;;;1.54;100.00;92761.50;2098632;28;20016;-81
2022/04/12 01:00:16;;;;;;;3.33;1.65;;;;;;;1.38;100.00;92771.56;2088242;28;20056;-84
2022/04/12 01:01:17;;;;;;;2.00;1.52;;;;;;;1.34;100.00;92768.88;2089450;28;20040;-82
2022/04/12 01:02:18;;;;;;;2.22;1.45;;;;;;;1.23;100.00;92770.72;2090265;28;20021;-83
2022/04/12 01:03:19;;;;;;;2.85;1.42;;;;;;;1.15;100.00;92774.41;2090309;28;20025;-82
2022/04/12 01:04:20;;;;;;;4.65;1.48;;;;;;;1.13;100.00;92766.09;2087620;28;20394;-82
2022/04/12 01:05:21;;;;;;;2.75;1.52;;;;;;;1.16;100.00;92774.03;2089137;28;20462;-84
2022/04/12 01:06:22;;;;;;;1.30;1.10;;;;;;;1.17;100.00;92764.25;2085305;28;20041;-83
2022/04/12 01:07:23;;;;;;;4.00;1.33;;;;;;;1.10;100.00;92769.44;2097631;28;20021;-83
2022/04/12 01:08:24;;;;;;;2.30;1.55;;;;;;;1.10;100.00;92761.56;2097721;28;20078;-82
2022/04/12 01:09:28;;;;;;;1.58;1.30;;;;;;;1.13;100.00;92766.84;2097507;28;20115;-83
2022/04/12 01:10:32;;;;;;;1.42;1.30;;;;;;;1.13;100.00;92763.47;2104712;28;20023;-83
2022/04/12 01:11:34;;;;;;;2.50;1.33;;;;;;;1.12;100.00;92761.97;2096324;28;20029;-80
2022/04/12 01:12:38;;;;;;;1.52;1.30;;;;;;;1.07;100.00;92763.06;2088448;28;20493;-83
2022/04/12 01:13:39;;;;;;;2.25;1.30;;;;;;;1.06;100.00;92764.19;2093712;28;20029;-82
2022/04/12 01:14:42;;;;;;;2.85;1.30;;;;;;;1.10;100.00;92758.91;2083593;28;20403;-82
2022/04/12 01:15:43;;;;;;;1.98;1.27;;;;;;;1.03;100.00;92761.50;2083393;28;20115;-82
2022/04/12 01:16:44;;;;;;;2.15;1.35;;;;;;;1.10;100.00;92756.28;2085922;28;20112;-82
2022/04/12 01:17:46;;;;;;;1.83;1.50;;;;;;;1.11;100.00;92763.84;2088465;28;20078;-84
2022/04/12 01:18:47;;;;;;;8.27;1.60;;;;;;;1.06;100.00;92753.66;2098682;28;20098;-81
2022/04/12 01:19:48;;;;;;;2.38;1.80;;;;;;;1.05;100.00;92757.38;2097513;28;20150;-82
2022/04/12 01:20:49;;;;;;;2.90;1.70;;;;;;;1.04;100.00;92760.38;2103413;28;20024;-81
2022/04/12 01:21:56;;;;;;;1.70;1.50;;;;;;;1.04;100.00;92747.22;2097070;28;20020;-83
2022/04/12 01:23:14;;;;;;;1.75;1.23;;;;;;;1.12;100.00;92756.69;2098059;28;20035;-79
2022/04/12 01:24:16;;;;;;;3.22;1.58;;;;;;;1.10;100.00;92753.66;2103765;28;20111;-81
2022/04/12 01:25:19;;;;;;;2.35;1.73;;;;;;;1.05;100.00;92754.00;2107269;28;20576;-81
2022/04/12 01:26:20;;;;;;;1.73;1.63;;;;;;;1.06;100.00;92747.63;2101765;28;20027;-81
2022/04/12 01:27:21;;;;;;;2.25;1.60;;;;;;;1.03;100.00;92757.00;2105745;28;20035;-82
2022/04/12 01:28:22;;;;;;;1.63;1.52;;;;;;;1.02;100.00;92749.47;2093180;28;20556;-82
2022/04/12 01:29:24;;;;;;;2.08;1.40;;;;;;;1.01;100.00;92751.34;2088761;28;20083;-83
2022/04/12 01:30:25;;;;;;;1.60;1.50;;;;;;;1.03;100.00;92754.38;2089382;28;20024;-82
2022/04/12 01:31:27;;;;;;;2.70;1.60;;;;;;;1.02;100.00;92752.13;2090916;28;20020;-82
2022/04/12 01:32:29;;;;;;;2.45;1.48;;;;;;;1.03;100.00;92750.97;2087381;28;20025;-83
2022/04/12 01:33:30;;;;;;;2.65;1.48;;;;;;;1.02;100.00;92744.22;2089374;28;20029;-81
2022/04/12 01:34:31;;;;;;;2.92;1.30;;;;;;;1.07;100.00;92746.50;2096502;28;20405;-83
2022/04/12 01:35:32;;;;;;;1.52;1.30;;;;;;;1.06;100.00;92747.63;2097262;28;20456;-83
2022/04/12 01:36:33;;;;;;;1.38;1.27;;;;;;;1.00;100.00;92755.09;2105097;28;20027;-80
2022/04/12 01:37:34;;;;;;;3.03;1.35;;;;;;;0.98;100.00;92744.94;2094191;28;20060;-82
2022/04/12 01:38:35;;;;;;;1.60;1.50;;;;;;;1.07;100.00;92749.91;2088886;28;20083;-81
2022/04/12 01:39:36;;;;;;;2.67;1.50;;;;;;;1.04;100.00;92744.59;2089183;28;20029;-80
2022/04/12 01:40:37;;;;;;;1.45;1.30;;;;;;;1.12;100.00;92754.81;2090289;28;20024;-82
2022/04/12 01:41:38;;;;;;;3.88;1.30;;;;;;;1.02;100.00;92746.84;2094589;28;20066;-81
2022/04/12 01:42:39;;;;;;;2.75;1.35;;;;;;;0.98;100.00;92747.56;2105495;28;20031;-81
2022/04/12 01:43:40;;;;;;;1.50;1.40;;;;;;;0.94;100.00;92748.66;2097369;28;20021;-82
2022/04/12 01:44:41;;;;;;;4.90;1.30;;;;;;;0.96;100.00;92744.53;2093322;28;20067;-81
2022/04/12 01:45:42;;;;;;;2.60;1.45;;;;;;;0.92;100.00;92751.66;2096516;28;20420;-82
2022/04/12 01:46:43;;;;;;;1.55;1.33;;;;;;;0.85;100.00;92748.97;2097190;28;20547;-81
2022/04/12 01:47:44;;;;;;;3.70;1.23;;;;;;;0.95;100.00;92747.53;2094631;28;20012;-82
2022/04/12 01:48:47;;;;;;;3.70;1.65;;;;;;;0.95;100.00;92744.91;2082686;28;20128;-83
2022/04/12 01:49:48;;;;;;;2.08;1.50;;;;;;;0.92;100.00;92751.66;2089667;28;20041;-83
2022/04/12 01:50:49;;;;;;;1.88;1.45;;;;;;;0.89;100.00;92749.75;2097343;28;20021;-82
2022/04/12 01:51:50;;;;;;;2.42;1.40;;;;;;;0.84;100.00;92752.72;2090849;28;20024;-82
2022/04/12 01:52:52;;;;;;;4.72;1.65;;;;;;;0.85;100.00;92751.59;2089084;28;20029;-82
2022/04/12 01:53:53;;;;;;;2.95;1.48;;;;;;;0.83;100.00;92748.56;2092791;28;20084;-82
2022/04/12 01:54:54;;;;;;;2.65;1.45;;;;;;;0.81;100.00;92752.69;2108128;28;20027;-83
2022/04/12 01:55:55;;;;;;;2.58;1.40;;;;;;;0.88;100.00;92745.63;2097020;28;20105;-83
2022/04/12 01:56:56;;;;;;;2.53;1.50;;;;;;;0.84;100.00;92750.09;2096593;28;20033;-84
2022/04/12 01:58:01;;;;;;;3.60;1.40;;;;;;;0.83;100.00;92742.53;2105359;28;20016;-82
2022/04/12 01:59:08;;;;;;;2.03;1.40;;;;;;;0.83;100.00;92748.56;2098504;28;20087;-81
2022/04/12 02:00:16;;;;;;;1.65;1.30;;;;;;;0.73;100.00;92744.72;2090065;28;20116;-83
2022/04/12 02:01:17;;;;;;;1.40;1.30;;;;;;;0.72;100.00;92735.31;2089185;28;20029;-83
2022/04/12 02:02:18;;;;;;;2.90;1.45;;;;;;;0.79;100.00;92747.78;2088665;28;20049;-84
2022/04/12 02:03:20;;;;;;;2.08;1.60;;;;;;;0.83;100.00;92732.00;2098880;28;20400;-81
2022/04/12 02:04:21;;;;;;;2.30;1.40;;;;;;;0.82;100.00;92735.78;2097941;28;20020;-83
2022/04/12 02:05:22;;;;;;;1.90;1.33;;;;;;;0.81;100.00;92742.91;2099278;28;20020;-83
2022/04/12 02:06:23;;;;;;;2.30;1.50;;;;;;;0.77;100.00;92733.47;2102816;28;20027;-83
2022/04/12 02:07:24;;;;;;;3.50;1.63;;;;;;;0.79;100.00;92737.28;2096497;28;21009;-82
2022/04/12 02:08:25;;;;;;;3.85;1.80;;;;;;;0.74;100.00;92738.34;2096143;28;20070;-82
2022/04/12 02:09:26;;;;;;;3.33;1.55;;;;;;;0.72;100.00;92739.84;2097147;28;20022;-84
2022/04/12 02:10:27;;;;;;;2.03;1.50;;;;;;;0.71;100.00;92733.81;2098033;28;20163;-81
2022/04/12 02:12:37;;;;;;;;;;;;;;;0.72;100.00;92737.19;2137926;27;20122;-82
2022/04/12 02:13:40;;;;;;;3.17;1.50;;;;;;;0.70;100.00;92734.16;2119375;28;19958;-82
2022/04/12 02:14:41;;;;;;;1.55;1.20;;;;;;;0.73;100.00;92733.44;2103901;28;20020;-82
2022/04/12 02:15:43;;;;;;;1.95;1.50;;;;;;;0.74;100.00;92738.34;2113477;28;20107;-82
2022/04/12 02:16:44;;;;;;;1.63;1.30;;;;;;;0.68;100.00;92729.28;2119905;27;20026;-83
2022/04/12 02:17:45;;;;;;;2.55;1.27;;;;;;;0.69;100.00;92743.19;2119898;28;20074;-83
2022/04/12 02:18:46;;;;;;;2.38;1.30;;;;;;;0.67;100.00;92740.16;2116904;28;20034;-81
2022/04/12 02:19:48;;;;;;;2.08;1.60;;;;;;;0.69;100.00;92737.91;2112123;28;20028;-82
2022/04/12 02:20:49;;;;;;;3.10;1.52;;;;;;;0.72;100.00;92737.19;2111784;28;20027;-83
2022/04/12 02:21:49;;;;;;;2.78;1.52;;;;;;;0.69;100.00;92730.78;2105018;28;20115;-82
2022/04/12 02:22:51;;;;;;;1.58;1.35;;;;;;;0.71;100.00;92740.97;2103192;28;20390;-83
2022/04/12 02:23:52;;;;;;;2.05;1.58;;;;;;;0.64;100.00;92736.38;2112968;28;20038;-81
2022/04/12 02:24:53;;;;;;;2.00;1.48;;;;;;;0.65;100.00;92737.88;2112288;28;20495;-81
2022/04/12 02:25:54;;;;;;;1.92;1.63;;;;;;;0.63;100.00;92742.75;2129481;27;20023;-83
2022/04/12 02:26:55;;;;;;;2.55;1.30;;;;;;;0.63;100.00;92739.38;2118869;28;20027;-83
2022/04/12 02:27:56;;;;;;;2.63;1.48;;;;;;;0.64;100.00;92740.88;2114588;28;20075;-82
2022/04/12 02:28:56;;;;;;;2.17;1.58;;;;;;;0.62;100.00;92743.88;2118745;28;20019;-81
2022/04/12 02:29:57;;;;;;;1.60;1.50;;;;;;;0.60;100.00;92740.84;2099754;28;20032;-82
2022/04/12 02:30:59;;;;;;;1.48;1.17;;;;;;;0.62;100.00;92746.50;2103823;28;20032;-80
2022/04/12 02:32:00;;;;;;;1.77;1.50;;;;;;;0.71;100.00;92746.97;2111991;27;20404;-82
2022/04/12 02:33:01;;;;;;;2.72;1.45;;;;;;;0.72;100.00;92748.47;2110037;28;20024;-80
2022/04/12 02:34:03;;;;;;;1.98;1.50;;;;;;;0.74;100.00;92746.22;2111904;28;20053;-82
2022/04/12 02:35:04;;;;;;;1.70;1.60;;;;;;;0.77;100.00;92747.38;2115538;28;20487;-80
2022/04/12 02:36:06;;;;;;;1.58;1.48;;;;;;;0.72;100.00;92735.31;2100371;28;20044;-82
2022/04/12 02:37:07;;;;;;;2.13;1.42;;;;;;;0.77;100.00;92738.75;2103478;28;20023;-81
2022/04/12 02:38:08;;;;;;;3.08;1.65;;;;;;;0.93;100.00;92736.63;2112266;27;20019;-82
2022/04/12 02:39:08;;;;;;;2.97;1.83;;;;;;;0.87;100.00;92727.53;2115921;28;20019;-81
2022/04/12 02:40:10;;;;;;;3.30;1.60;;;;;;;0.84;100.00;92739.56;2112184;28;20098;-84
2022/04/12 02:41:11;;;;;;;1.98;1.63;;;;;;;0.71;100.00;92736.44;2120131;28;20039;-81
2022/04/12 02:42:12;;;;;;;4.10;1.92;;;;;;;0.75;100.00;92731.22;2117913;28;20012;-84
2022/04/12 02:43:13;;;;;;;1.75;1.63;;;;;;;0.77;100.00;92728.22;2124124;27;20015;-83
2022/04/12 02:44:14;;;;;;;3.08;1.70;;;;;;;0.92;100.00;92727.19;2128663;27;20019;-83
2022/04/12 02:45:15;;;;;;;1.95;1.60;;;;;;;0.94;100.00;92724.97;2129478;27;20019;-81
2022/04/12 02:46:16;;;;;;;1.70;1.60;;;;;;;1.20;100.00;92724.03;2121051;27;20031;-82
2022/04/12 02:47:17;;;;;;;2.95;1.60;;;;;;;1.11;100.00;92720.97;2110095;28;20020;-82
2022/04/12 02:48:18;;;;;;;4.32;1.60;;;;;;;1.07;100.00;92714.94;2110712;28;20112;-82
2022/04/12 02:49:19;;;;;;;4.65;1.63;;;;;;;0.94;100.00;92717.84;2110323;28;20020;-84
2022/04/12 02:50:19;;;;;;;1.52;1.42;;;;;;;0.99;100.00;92720.13;2102937;28;20138;-83
2022/04/12 02:51:20;;;;;;;2.25;1.42;;;;;;;0.96;100.00;92718.22;2111915;28;20023;-84
2022/04/12 02:52:21;;;;;;;1.83;1.48;;;;;;;1.08;100.00;92716.44;2112244;28;20031;-83
2022/04/12 02:53:22;;;;;;;2.05;1.52;;;;;;;1.06;100.00;92718.69;2108230;28;20023;-82
2022/04/12 02:54:24;;;;;;;1.55;1.38;;;;;;;0.93;100.00;92721.59;2116228;28;20023;-84
2022/04/12 02:55:25;;;;;;;2.15;1.55;;;;;;;0.76;100.00;92719.56;2111610;28;20103;-80
2022/04/12 02:56:26;;;;;;;2.55;1.45;;;;;;;0.66;100.00;92726.25;2111299;28;20028;-83
2022/04/12 02:57:27;;;;;;;2.92;1.52;;;;;;;0.60;100.00;92721.69;2110094;28;20020;-83
2022/04/12 02:58:28;;;;;;;4.43;1.80;;;;;;;0.57;100.00;92719.75;2108306;28;20027;-82
2022/04/12 02:59:29;;;;;;;2.58;1.50;;;;;;;0.57;100.00;92715.28;2113730;28;20507;-81
2022/04/12 03:00:30;;;;;;;2.15;1.63;;;;;;;0.54;100.00;92713.38;2108337;28;20020;-82
2022/04/12 03:01:31;;;;;;;3.03;1.60;;;;;;;0.48;100.00;92712.16;2110737;27;20024;-83
2022/04/12 03:02:32;;;;;;;5.38;1.88;;;;;;;0.48;100.00;92723.47;2112604;28;20173;-80
2022/04/12 03:03:33;;;;;;;2.40;2.03;;;;;;;0.47;100.00;92718.56;2119672;27;20104;-83
2022/04/12 03:04:34;;;;;;;1.83;1.60;;;;;;;0.46;100.00;92722.31;2128155;27;20030;-82
2022/04/12 03:05:35;;;;;;;2.75;1.38;;;;;;;0.46;100.00;92717.81;2129646;27;20027;-82
2022/04/12 03:06:36;;;;;;;1.70;1.33;;;;;;;0.48;100.00;92727.94;2120770;27;20020;-83
2022/04/12 03:07:37;;;;;;;1.73;1.63;;;;;;;0.56;100.00;92723.53;2113162;28;20106;-83
2022/04/12 03:08:38;;;;;;;1.30;1.13;;;;;;;0.58;100.00;92719.41;2108861;28;20016;-82
2022/04/12 03:09:39;;;;;;;1.77;1.30;;;;;;;0.56;100.00;92718.25;2114807;28;20020;-81
2022/04/12 03:10:40;;;;;;;1.42;1.08;;;;;;;0.47;100.00;92715.94;2120391;28;20077;-84
2022/04/12 03:11:41;;;;;;;1.52;1.20;;;;;;;0.49;100.00;92722.34;2111981;27;20020;-81
2022/04/12 03:12:42;;;;;;;1.75;1.63;;;;;;;0.49;100.00;92721.59;2111894;28;20487;-82
2022/04/12 03:13:43;;;;;;;1.33;1.10;;;;;;;0.57;100.00;92727.66;2119617;27;20016;-82
2022/04/12 03:14:59;;;;;;;2.78;1.38;;;;;;;0.52;100.00;92722.72;2125190;27;20023;-82
2022/04/12 03:16:00;;;;;;;1.80;1.30;;;;;;;0.49;100.00;92718.97;2111731;28;20020;-83
2022/04/12 03:17:01;;;;;;;1.55;1.20;;;;;;;0.46;100.00;92714.41;2108094;28;20085;-82
2022/04/12 03:18:03;;;;;;;3.67;1.30;;;;;;;0.46;100.00;92723.06;2105928;28;20028;-82
2022/04/12 03:19:04;;;;;;;3.33;1.40;;;;;;;0.45;100.00;92720.81;2103825;28;20111;-82
2022/04/12 03:20:05;;;;;;;2.47;1.35;;;;;;;0.40;100.00;92714.00;2103562;28;20097;-82
2022/04/12 03:21:06;;;;;;;1.40;1.30;;;;;;;0.49;100.00;92717.09;2110341;27;20047;-81
2022/04/12 03:22:07;;;;;;;1.30;1.20;;;;;;;0.44;100.00;92711.38;2109616;28;20030;-83
2022/04/12 03:23:08;;;;;;;3.30;1.75;;;;;;;0.46;100.00;92715.16;2102205;28;20020;-82
2022/04/12 03:24:09;;;;;;;1.98;1.38;;;;;;;0.43;100.00;92712.50;2106278;28;20029;-81
2022/04/12 03:25:10;;;;;;;3.55;1.50;;;;;;;0.47;100.00;92708.78;2106302;28;20024;-85
2022/04/12 03:26:11;;;;;;;4.07;1.50;;;;;;;0.38;100.00;92708.34;2096571;28;20062;-83
2022/04/12 03:27:12;;;;;;;2.63;1.52;;;;;;;0.42;100.00;92705.75;2105415;28;20016;-85
2022/04/12 03:28:14;;;;;;;1.77;1.45;;;;;;;0.42;100.00;92708.38;2111845;28;20411;-82
2022/04/12 03:29:16;;;;;;;1.70;1.15;;;;;;;0.42;100.00;92714.38;2102315;28;20028;-82
2022/04/12 03:30:17;;;;;;;3.90;1.30;;;;;;;0.33;100.00;92708.66;2096097;28;20115;-82
2022/04/12 03:31:18;;;;;;;1.60;1.45;;;;;;;0.37;100.00;92712.09;2097272;28;20024;-82
2022/04/12 03:32:19;;;;;;;1.55;1.27;;;;;;;0.32;100.00;92714.28;2104463;28;20024;-83
2022/04/12 03:33:20;;;;;;;2.65;1.60;;;;;;;0.28;100.00;92709.00;2106474;28;20016;-82
2022/04/12 03:34:21;;;;;;;4.65;1.50;;;;;;;0.31;100.00;92704.88;2097571;28;20054;-82
2022/04/12 03:35:23;;;;;;;2.63;1.40;;;;;;;0.25;100.00;92710.47;2104892;28;20031;-83
2022/04/12 03:36:25;;;;;;;2.45;1.48;;;;;;;0.27;100.00;92712.00;2114713;27;20019;-83
2022/04/12 03:37:26;;;;;;;5.30;1.80;;;;;;;0.21;100.00;92714.16;2123297;27;20138;-81
2022/04/12 03:38:27;;;;;;;2.53;1.50;;;;;;;0.32;100.00;92712.41;2106315;28;20024;-84
2022/04/12 03:39:28;;;;;;;1.92;1.30;;;;;;;0.30;100.00;92708.63;2106373;28;20056;-82
2022/04/12 03:40:33;;;;;;;3.10;1.50;;;;;;;0.28;100.00;92709.00;2105318;28;20020;-83
2022/04/12 03:41:34;;;;;;;1.95;1.33;;;;;;;0.29;100.00;92709.75;2097712;28;20500;-81
2022/04/12 03:42:35;;;;;;;1.20;1.10;;;;;;;0.25;100.00;92710.47;2097011;28;20021;-84
2022/04/12 03:43:37;;;;;;;1.60;1.48;;;;;;;0.24;100.00;92708.94;2113967;27;20113;-84
2022/04/12 03:44:38;;;;;;;3.20;1.42;;;;;;;0.31;100.00;92715.38;2113673;28;20024;-82
2022/04/12 03:45:39;;;;;;;1.60;1.13;;;;;;;0.25;100.00;92710.47;2097687;28;20400;-83
2022/04/12 03:46:40;;;;;;;1.73;1.30;;;;;;;0.27;100.00;92707.50;2106480;28;20032;-81
2022/04/12 03:47:41;;;;;;;2.55;1.40;;;;;;;0.31;100.00;92708.28;2106666;28;20031;-83
2022/04/12 03:48:42;;;;;;;3.97;1.48;;;;;;;0.31;100.00;92712.75;2106021;28;20020;-82
2022/04/12 03:49:43;;;;;;;1.52;1.42;;;;;;;0.17;100.00;92702.84;2112915;28;20016;-81
2022/04/12 03:50:44;;;;;;;2.22;1.48;;;;;;;0.13;100.00;92709.94;2110682;28;20024;-81
2022/04/12 03:51:45;;;;;;;2.15;1.40;;;;;;;0.10;100.00;92708.81;2098113;28;20028;-83
2022/04/12 03:52:46;;;;;;;1.73;1.52;;;;;;;0.09;100.00;92707.31;2097912;28;20664;-83
2022/04/12 03:53:47;;;;;;;3.47;1.58;;;;;;;0.14;100.00;92714.09;2098155;28;20028;-81
2022/04/12 03:54:48;;;;;;;1.95;1.60;;;;;;;0.06;100.00;92702.00;2108062;28;20035;-83
2022/04/12 03:55:50;;;;;;;2.75;1.42;;;;;;;0.12;100.00;92706.56;2103440;28;20019;-84
2022/04/12 03:56:52;;;;;;;2.70;1.40;;;;;;;0.11;100.00;92710.31;2113861;27;20020;-81
2022/04/12 03:57:52;;;;;;;2.58;1.70;;;;;;;0.13;100.00;92700.22;2114579;28;20118;-84
2022/04/12 03:58:53;;;;;;;2.15;1.40;;;;;;;0.18;100.00;92704.41;2114753;28;20066;-82
2022/04/12 03:59:54;;;;;;;1.58;1.13;;;;;;;0.25;100.00;92707.81;2112409;28;20038;-82
2022/04/12 04:00:55;;;;;;;2.50;1.40;;;;;;;0.13;100.00;92707.31;2105934;28;20051;-82
2022/04/12 04:01:56;;;;;;;3.17;1.90;;;;;;;0.12;100.00;92706.56;2097236;28;20051;-83
2022/04/12 04:02:58;;;;;;;2.38;1.60;;;;;;;0.14;100.00;92699.09;2105348;28;20468;-83
2022/04/12 04:03:58;;;;;;;2.72;1.75;;;;;;;0.05;100.00;92701.25;2105411;28;20776;-80
2022/04/12 04:05:00;;;;;;;1.83;1.40;;;;;;;0.00;100.00;92698.94;2096783;28;20032;-82
2022/04/12 04:06:00;;;;;;;1.65;1.30;;;;;;;0.10;100.00;92700.19;2097176;28;20040;-84
2022/04/12 04:07:01;;;;;;;2.75;1.40;;;;;;;0.11;100.00;92702.44;2105526;28;20077;-81
2022/04/12 04:08:02;;;;;;;1.98;1.38;;;;;;;0.02;100.00;92701.22;2114497;28;20046;-80
2022/04/12 04:09:04;;;;;;;1.40;1.30;;;;;;;-0.02;100.00;92704.53;2106174;28;20123;-80
2022/04/12 04:10:05;;;;;;;2.75;1.58;;;;;;;-0.02;100.00;92699.28;2106162;28;20019;-82
2022/04/12 04:11:06;;;;;;;2.58;1.60;;;;;;;-0.05;100.00;92701.88;2096126;28;20021;-82
2022/04/12 04:12:08;;;;;;;2.20;1.33;;;;;;;-0.04;100.00;92709.41;2104652;28;20500;-81
2022/04/12 04:13:09;;;;;;;2.70;1.48;;;;;;;0.04;100.00;92704.97;2105733;28;20067;-82
2022/04/12 04:14:10;;;;;;;1.63;1.20;;;;;;;0.05;100.00;92701.25;2095628;28;20436;-82
2022/04/12 04:15:12;;;;;;;2.92;1.73;;;;;;;0.06;100.00;92709.88;2098519;28;20020;-83
2022/04/12 04:16:13;;;;;;;1.52;1.05;;;;;;;0.04;100.00;92702.34;2114464;28;20088;-82
2022/04/12 04:17:14;;;;;;;2.22;1.13;;;;;;;0.06;100.00;92702.75;2103378;28;20020;-84
2022/04/12 04:18:15;;;;;;;4.65;1.60;;;;;;;0.10;100.00;92703.56;2097957;28;20109;-82
2022/04/12 04:19:16;;;;;;;3.38;1.70;;;;;;;0.16;100.00;92711.88;2106305;28;20012;-82
2022/04/12 04:20:18;;;;;;;1.65;1.20;;;;;;;0.16;100.00;92709.25;2105980;28;20540;-81
2022/04/12 04:21:19;;;;;;;2.25;1.45;;;;;;;0.12;100.00;92708.44;2106202;28;20020;-80
2022/04/12 04:22:20;;;;;;;2.75;1.48;;;;;;;0.11;100.00;92707.69;2113355;28;20023;-81
2022/04/12 04:23:21;;;;;;;1.90;1.33;;;;;;;0.15;100.00;92710.34;2106291;28;20382;-82
2022/04/12 04:24:23;;;;;;;2.08;1.60;;;;;;;0.20;100.00;92710.78;2114005;28;20019;-83
2022/04/12 04:25:24;;;;;;;1.50;1.40;;;;;;;0.21;100.00;92714.16;2114520;28;20019;-82
2022/04/12 04:26:25;;;;;;;4.43;1.83;;;;;;;0.10;100.00;92708.81;2105987;28;20027;-82
2022/04/12 04:27:29;;;;;;;1.52;1.30;;;;;;;0.15;100.00;92715.63;2106142;28;20665;-81
2022/04/12 04:28:34;;;;;;;2.15;1.55;;;;;;;0.10;100.00;92708.81;2103841;27;20072;-84
2022/04/12 04:29:35;;;;;;;1.88;1.23;;;;;;;0.12;100.00;92716.31;2112025;27;20422;-83
2022/04/12 04:30:37;;;;;;;3.67;1.65;;;;;;;0.13;100.00;92712.56;2106023;28;20027;-83
2022/04/12 04:31:38;;;;;;;2.17;1.23;;;;;;;0.12;100.00;92709.19;2114473;28;20020;-81
2022/04/12 04:32:40;;;;;;;2.20;1.35;;;;;;;0.15;100.00;92713.00;2112793;28;20024;-82
2022/04/12 04:33:41;;;;;;;3.60;1.38;;;;;;;0.13;100.00;92715.19;2098006;28;20052;-83
2022/04/12 04:34:42;;;;;;;1.52;1.42;;;;;;;0.14;100.00;92714.88;2103132;28;20027;-83
2022/04/12 04:35:44;;;;;;;1.70;1.52;;;;;;;0.15;100.00;92710.34;2113787;28;20023;-83
2022/04/12 04:36:45;;;;;;;1.88;1.73;;;;;;;0.12;100.00;92713.69;2111764;28;20123;-82
2022/04/12 04:37:48;;;;;;;3.80;3.08;;;;;;;0.20;100.00;92713.41;2106518;28;20492;-85
2022/04/12 04:38:49;;;;;;;35.03;22.85;;;;;;;0.18;100.00;92718.28;2106647;28;20020;-82
2022/04/12 04:39:50;;;;;;;58.53;36.38;;;;;;;0.14;100.00;92714.09;2106426;28;20052;-82
2022/04/12 04:40:51;;;;;;;25.73;14.55;;;;;;;0.22;100.00;92720.94;2105355;28;20115;-82
2022/04/12 04:41:52;;;;;;;22.70;15.57;;;;;;;0.16;100.00;92717.13;2104664;28;20020;-82
2022/04/12 04:42:54;;;;;;;13.77;8.82;;;;;;;0.15;100.00;92720.88;2106212;28;20046;-83
2022/04/12 04:43:55;;;;;;;5.82;4.63;;;;;;;0.16;100.00;92723.13;2113651;27;20028;-82
2022/04/12 04:44:56;;;;;;;7.25;5.90;;;;;;;0.09;100.00;92717.03;2116173;27;20434;-83
2022/04/12 04:45:57;;;;;;;7.63;4.80;;;;;;;0.04;100.00;92718.09;2114743;28;20076;-82
2022/04/12 04:46:58;;;;;;;3.78;2.92;;;;;;;0.13;100.00;92723.88;2106372;28;20106;-83
2022/04/12 04:48:03;;;;;;;7.93;3.53;;;;;;;0.16;100.00;92717.13;2097666;28;20043;-83
2022/04/12 04:49:05;;;;;;;4.97;4.10;;;;;;;0.17;100.00;92719.38;2098187;28;20583;-81
2022/04/12 04:50:06;;;;;;;4.32;3.50;;;;;;;0.26;100.00;92724.34;2098159;28;20028;-83
2022/04/12 04:51:07;;;;;;;3.30;3.00;;;;;;;0.28;100.00;92719.50;2106417;28;20020;-81
2022/04/12 04:52:08;;;;;;;3.50;3.15;;;;;;;0.34;100.00;92725.94;2114465;28;20764;-82